Time;durP1;ratioP1;P1;durP2;ratioP2;P2;SDS_P1;SDS_P2;PMS_P1;PMS_P2;Temp;Humidity;BMP_temperature;BMP_pressure;BME280_temperature;BME280_humidity;BME280_pressure;Samples;Min_cycle;Max_cycle;Signal;HPM_P1;HPM_P2
2023/02/06 00:01:04;;;;;;;;;;;;;;;;;;5056447;28;19966;-89
2023/02/06 00:03:29;;;;;;;;;;;;;;;;;;5074472;28;19923;-84
2023/02/06 00:05:59;;;;;;;;;;;;;;;;;;5073279;28;19923;-87
2023/02/06 00:08:25;;;;;;;;;;;;;;;;;;5074260;28;19920;-87
2023/02/06 00:10:50;;;;;;;;;;;;;;;;;;5074374;28;19961;-87
2023/02/06 00:13:16;;;;;;;;;;;;;;;;;;5074265;28;19987;-88
2023/02/06 00:15:41;;;;;;;;;;;;;;;;;;5056112;28;20368;-85
2023/02/06 00:18:07;;;;;;;;;;;;;;;;;;5074126;28;19913;-85
2023/02/06 00:20:32;;;;;;;;;;;;;;;;;;5074177;28;19916;-85
2023/02/06 00:22:57;;;;;;;;;;;;;;;;;;5074110;28;19917;-86
2023/02/06 00:25:23;;;;;;;;;;;;;;;;;;5072759;28;19916;-87
2023/02/06 00:27:48;;;;;;;;;;;;;;;;;;5073907;28;20375;-86
2023/02/06 00:30:14;;;;;;;;;;;;;;;;;;5073967;28;19962;-85
2023/02/06 00:32:39;;;;;;;;;;;;;;;;;;5073858;28;19924;-85
2023/02/06 00:35:05;;;;;;;;;;;;;;;;;;5073891;28;19924;-84
2023/02/06 00:37:30;;;;;;;;;;;;;;;;;;5073720;28;19944;-82
2023/02/06 00:39:56;;;;;;;;;;;;;;;;;;5073698;28;19920;-85
2023/02/06 00:42:21;;;;;;;;;;;;;;;;;;5073779;28;20027;-88
2023/02/06 00:44:46;;;;;;;;;;;;;;;;;;5073710;28;19970;-88
2023/02/06 00:47:12;;;;;;;;;;;;;;;;;;5039217;28;19921;-89
2023/02/06 00:49:37;;;;;;;;;;;;;;;;;;5055538;28;19934;-88
2023/02/06 00:52:03;;;;;;;;;;;;;;;;;;5073616;28;19939;-88
2023/02/06 00:54:28;;;;;;;;;;;;;;;;;;5073662;28;20375;-94
2023/02/06 00:56:54;;;;;;;;;;;;;;;;;;5073415;28;19961;-89
2023/02/06 00:59:19;;;;;;;;;;;;;;;;;;5073527;28;19963;-92
2023/02/06 01:01:44;;;;;;;;;;;;;;;;;;5073639;28;20346;-91
2023/02/06 01:04:10;;;;;;;;;;;;;;;;;;5073481;28;20011;-90
2023/02/06 01:06:35;;;;;;;;;;;;;;;;;;5055524;28;20003;-88
2023/02/06 01:09:01;;;;;;;;;;;;;;;;;;5073499;28;19921;-88
2023/02/06 01:11:26;;;;;;;;;;;;;;;;;;5073673;28;20288;-90
2023/02/06 01:13:52;;;;;;;;;;;;;;;;;;5072308;28;19920;-90
2023/02/06 01:16:19;;;;;;;;;;;;;;;;;;5073616;28;19959;-91
2023/02/06 01:18:45;;;;;;;;;;;;;;;;;;5073666;28;19924;-92
2023/02/06 01:21:15;;;;;;;;;;;;;;;;;;5055577;28;20290;-90
2023/02/06 01:23:40;;;;;;;;;;;;;;;;;;5073639;28;20384;-90
2023/02/06 01:26:07;;;;;;;;;;;;;;;;;;5073452;28;19916;-88
2023/02/06 01:28:36;;;;;;;;;;;;;;;;;;5057346;28;20364;-89
2023/02/06 01:31:08;;;;;;;;;;;;;;;;;;5059625;28;20015;-92
2023/02/06 01:33:33;;;;;;;;;;;;;;;;;;5077434;28;19912;-88
2023/02/06 01:35:59;;;;;;;;;;;;;;;;;;5077629;28;19977;-91
2023/02/06 01:38:24;;;;;;;;;;;;;;;;;;5077325;28;20291;-94
2023/02/06 01:40:54;;;;;;;;;;;;;;;;;;5077194;28;20375;-88
2023/02/06 01:43:20;;;;;;;;;;;;;;;;;;5077206;28;19920;-91
2023/02/06 01:45:45;;;;;;;;;;;;;;;;;;5077117;28;20268;-91
2023/02/06 01:48:17;;;;;;;;;;;;;;;;;;5059006;28;19939;-89
2023/02/06 01:50:45;;;;;;;;;;;;;;;;;;5077225;28;19962;-90
2023/02/06 01:53:11;;;;;;;;;;;;;;;;;;5077417;28;19916;-89
2023/02/06 01:55:37;;;;;;;;;;;;;;;;;;5059156;28;20362;-89
2023/02/06 01:58:03;;;;;;;;;;;;;;;;;;5077041;28;19916;-91
2023/02/06 02:00:28;;;;;;;;;;;;;;;;;;5077020;28;19922;-92
2023/02/06 02:02:54;;;;;;;;;;;;;;;;;;5076695;28;19916;-86
2023/02/06 02:05:19;;;;;;;;;;;;;;;;;;5077069;28;19917;-91
2023/02/06 02:08:07;;;;;;;;;;;;;;;;;;5058886;28;19916;-90
2023/02/06 02:10:32;;;;;;;;;;;;;;;;;;5076839;28;20399;-91
2023/02/06 02:12:57;;;;;;;;;;;;;;;;;;5076778;28;19917;-91
2023/02/06 02:15:27;;;;;;;;;;;;;;;;;;5076662;28;20015;-93
2023/02/06 02:18:09;;;;;;;;;;;;;;;;;;5076755;28;20012;-90
2023/02/06 02:20:52;;;;;;;;;;;;;;;;;;5076756;28;19940;-88
2023/02/06 02:23:33;;;;;;;;;;;;;;;;;;5076657;28;19978;-91
2023/02/06 02:26:17;;;;;;;;;;;;;;;;;;5058330;28;19974;-90
2023/02/06 02:28:46;;;;;;;;;;;;;;;;;;5058300;28;20297;-84
2023/02/06 02:31:20;;;;;;;;;;;;;;;;;;5076074;28;19977;-82
2023/02/06 02:33:55;;;;;;;;;;;;;;;;;;5058083;28;19912;-83
2023/02/06 02:36:42;;;;;;;;;;;;;;;;;;5076041;28;19917;-83
2023/02/06 02:39:08;;;;;;;;;;;;;;;;;;5076285;28;20379;-83
2023/02/06 02:41:39;;;;;;;;;;;;;;;;;;5058145;28;19951;-82
2023/02/06 02:44:14;;;;;;;;;;;;;;;;;;5076246;28;19916;-83
2023/02/06 02:46:41;;;;;;;;;;;;;;;;;;5058394;28;19916;-82
2023/02/06 02:49:15;;;;;;;;;;;;;;;;;;5075818;28;19921;-84
2023/02/06 02:51:41;;;;;;;;;;;;;;;;;;5075925;28;19924;-83
2023/02/06 02:54:07;;;;;;;;;;;;;;;;;;5075888;28;19916;-83
2023/02/06 02:56:32;;;;;;;;;;;;;;;;;;5076801;28;19985;-83
2023/02/06 02:59:08;;;;;;;;;;;;;;;;;;5087911;28;19939;-85
2023/02/06 03:01:43;;;;;;;;;;;;;;;;;;5091076;28;19916;-83
2023/02/06 03:04:15;;;;;;;;;;;;;;;;;;5061958;28;19912;-87
2023/02/06 03:06:59;;;;;;;;;;;;;;;;;;5076132;28;20030;-87
2023/02/06 03:09:27;;;;;;;;;;;;;;;;;;5075639;28;19969;-84
2023/02/06 03:11:57;;;;;;;;;;;;;;;;;;5075325;28;20039;-88
2023/02/06 03:14:27;;;;;;;;;;;;;;;;;;5075339;28;19947;-84
2023/02/06 03:17:04;;;;;;;;;;;;;;;;;;5075455;28;19979;-85
2023/02/06 03:19:32;;;;;;;;;;;;;;;;;;5075438;28;19993;-85
2023/02/06 03:21:59;;;;;;;;;;;;;;;;;;5075258;28;19917;-85
2023/02/06 03:24:27;;;;;;;;;;;;;;;;;;5075524;28;20373;-87
2023/02/06 03:26:55;;;;;;;;;;;;;;;;;;5075190;28;19969;-84
2023/02/06 03:29:21;;;;;;;;;;;;;;;;;;5075042;28;19916;-85
2023/02/06 03:31:46;;;;;;;;;;;;;;;;;;5075204;28;20023;-85
2023/02/06 03:34:16;;;;;;;;;;;;;;;;;;5057086;28;19931;-88
2023/02/06 03:36:41;;;;;;;;;;;;;;;;;;5074941;28;19942;-88
2023/02/06 03:39:07;;;;;;;;;;;;;;;;;;5075052;28;19920;-87
2023/02/06 03:41:34;;;;;;;;;;;;;;;;;;5056945;28;19961;-85
2023/02/06 03:44:00;;;;;;;;;;;;;;;;;;5075390;28;19923;-86
2023/02/06 03:46:27;;;;;;;;;;;;;;;;;;5056769;28;20291;-87
2023/02/06 03:48:56;;;;;;;;;;;;;;;;;;5074442;28;19924;-84
2023/02/06 03:51:25;;;;;;;;;;;;;;;;;;5074120;28;19916;-85
2023/02/06 03:53:51;;;;;;;;;;;;;;;;;;5074653;28;19917;-88
2023/02/06 03:56:43;;;;;;;;;;;;;;;;;;5074523;28;19917;-86
2023/02/06 03:59:09;;;;;;;;;;;;;;;;;;5071420;28;19923;-85
2023/02/06 04:01:38;;;;;;;;;;;;;;;;;;5074504;28;19917;-86
2023/02/06 04:04:05;;;;;;;;;;;;;;;;;;5074504;28;19920;-86
2023/02/06 04:06:30;;;;;;;;;;;;;;;;;;5074273;28;19921;-89
2023/02/06 04:08:55;;;;;;;;;;;;;;;;;;5074174;28;20357;-85
2023/02/06 04:11:21;;;;;;;;;;;;;;;;;;5072947;28;20407;-89
2023/02/06 04:13:46;;;;;;;;;;;;;;;;;;5074242;28;19916;-85
2023/02/06 04:16:12;;;;;;;;;;;;;;;;;;5074218;28;19959;-88
2023/02/06 04:18:37;;;;;;;;;;;;;;;;;;5074256;28;19952;-90
2023/02/06 04:21:03;;;;;;;;;;;;;;;;;;5074170;28;19919;-91
2023/02/06 04:23:29;;;;;;;;;;;;;;;;;;5056349;28;19916;-89
2023/02/06 04:25:54;;;;;;;;;;;;;;;;;;5056297;28;19916;-88
2023/02/06 04:28:20;;;;;;;;;;;;;;;;;;5074062;28;19939;-91
2023/02/06 04:30:46;;;;;;;;;;;;;;;;;;5074166;28;19928;-86
2023/02/06 04:33:11;;;;;;;;;;;;;;;;;;5074037;28;19921;-86
2023/02/06 04:35:37;;;;;;;;;;;;;;;;;;5073935;28;19913;-87
2023/02/06 04:38:02;;;;;;;;;;;;;;;;;;5074124;28;19916;-85
2023/02/06 04:40:27;;;;;;;;;;;;;;;;;;5073959;28;19912;-84
2023/02/06 04:42:53;;;;;;;;;;;;;;;;;;5073604;28;20367;-90
2023/02/06 04:45:18;;;;;;;;;;;;;;;;;;5073784;28;19917;-86
2023/02/06 04:47:48;;;;;;;;;;;;;;;;;;5073712;28;19922;-88
2023/02/06 04:50:13;;;;;;;;;;;;;;;;;;5073777;28;19967;-90
2023/02/06 04:52:38;;;;;;;;;;;;;;;;;;5072645;28;19948;-87
2023/02/06 04:55:04;;;;;;;;;;;;;;;;;;5055830;28;19951;-90
2023/02/06 04:57:29;;;;;;;;;;;;;;;;;;5073491;28;19928;-90
2023/02/06 04:59:55;;;;;;;;;;;;;;;;;;5073501;28;19916;-87
2023/02/06 05:02:20;;;;;;;;;;;;;;;;;;5072580;28;19916;-82
2023/02/06 05:04:46;;;;;;;;;;;;;;;;;;5073577;28;19920;-88
2023/02/06 05:07:11;;;;;;;;;;;;;;;;;;5073556;28;19920;-90
2023/02/06 05:09:36;;;;;;;;;;;;;;;;;;5055390;28;19923;-85
2023/02/06 05:12:02;;;;;;;;;;;;;;;;;;5073542;28;19920;-89
2023/02/06 05:14:27;;;;;;;;;;;;;;;;;;5074645;28;19966;-91
2023/02/06 05:16:53;;;;;;;;;;;;;;;;;;5055483;28;19917;-90
2023/02/06 05:19:18;;;;;;;;;;;;;;;;;;5073409;28;19917;-89
2023/02/06 05:21:44;;;;;;;;;;;;;;;;;;5072215;28;20359;-89
2023/02/06 05:24:09;;;;;;;;;;;;;;;;;;5072802;28;20398;-88
2023/02/06 05:26:34;;;;;;;;;;;;;;;;;;5073293;28;19920;-90
2023/02/06 05:29:00;;;;;;;;;;;;;;;;;;5073240;28;19956;-85
2023/02/06 05:31:25;;;;;;;;;;;;;;;;;;5073075;28;20024;-94
2023/02/06 05:33:50;;;;;;;;;;;;;;;;;;5073138;28;19916;-92
2023/02/06 05:36:16;;;;;;;;;;;;;;;;;;5073038;28;20284;-83
2023/02/06 05:38:42;;;;;;;;;;;;;;;;;;5073055;28;20349;-85
2023/02/06 05:41:07;;;;;;;;;;;;;;;;;;5073085;28;19916;-83
2023/02/06 05:43:32;;;;;;;;;;;;;;;;;;5073093;28;20367;-86
2023/02/06 05:45:58;;;;;;;;;;;;;;;;;;5073033;28;19969;-85
2023/02/06 05:48:23;;;;;;;;;;;;;;;;;;5072788;28;19924;-85
2023/02/06 05:50:49;;;;;;;;;;;;;;;;;;5073002;28;19916;-85
2023/02/06 05:53:15;;;;;;;;;;;;;;;;;;5073060;28;20284;-85
2023/02/06 05:55:40;;;;;;;;;;;;;;;;;;5072925;28;19961;-90
2023/02/06 05:58:06;;;;;;;;;;;;;;;;;;5072884;28;19916;-82
2023/02/06 06:00:31;;;;;;;;;;;;;;;;;;5072949;28;19925;-88
2023/02/06 06:02:57;;;;;;;;;;;;;;;;;;5072762;28;20007;-87
2023/02/06 06:05:22;;;;;;;;;;;;;;;;;;5072876;28;19926;-88
2023/02/06 06:07:47;;;;;;;;;;;;;;;;;;5072915;28;19920;-86
2023/02/06 06:10:13;;;;;;;;;;;;;;;;;;5072935;28;20356;-86
2023/02/06 06:12:38;;;;;;;;;;;;;;;;;;5072668;28;19963;-84
2023/02/06 06:15:04;;;;;;;;;;;;;;;;;;5075149;28;19913;-90
2023/02/06 06:17:29;;;;;;;;;;;;;;;;;;5076300;28;20486;-86
2023/02/06 06:19:55;;;;;;;;;;;;;;;;;;5076399;28;20398;-91
2023/02/06 06:22:20;;;;;;;;;;;;;;;;;;5076280;28;20395;-89
2023/02/06 06:24:46;;;;;;;;;;;;;;;;;;5058236;28;19917;-84
2023/02/06 06:27:11;;;;;;;;;;;;;;;;;;5058330;28;19920;-82
2023/02/06 06:29:37;;;;;;;;;;;;;;;;;;5076070;28;19959;-82
2023/02/06 06:32:02;;;;;;;;;;;;;;;;;;5076095;28;19916;-81
2023/02/06 06:34:28;;;;;;;;;;;;;;;;;;5076039;28;19969;-83
2023/02/06 06:36:53;;;;;;;;;;;;;;;;;;5057900;28;20011;-83
2023/02/06 06:39:19;;;;;;;;;;;;;;;;;;5058014;28;19923;-83
2023/02/06 06:41:44;;;;;;;;;;;;;;;;;;5075876;28;19921;-86
2023/02/06 06:44:10;;;;;;;;;;;;;;;;;;5075943;28;19920;-84
2023/02/06 06:46:35;;;;;;;;;;;;;;;;;;5075935;28;19920;-84
2023/02/06 06:49:00;;;;;;;;;;;;;;;;;;5075642;28;20367;-84
2023/02/06 06:51:28;;;;;;;;;;;;;;;;;;5075975;28;19925;-84
2023/02/06 06:53:53;;;;;;;;;;;;;;;;;;5057681;28;19917;-82
2023/02/06 06:56:19;;;;;;;;;;;;;;;;;;5075798;28;19917;-86
2023/02/06 06:58:44;;;;;;;;;;;;;;;;;;5057575;28;19989;-84
2023/02/06 07:01:10;;;;;;;;;;;;;;;;;;5057635;28;19916;-83
2023/02/06 07:03:35;;;;;;;;;;;;;;;;;;5075614;28;19916;-83
2023/02/06 07:06:01;;;;;;;;;;;;;;;;;;5075492;28;19921;-86
2023/02/06 07:08:28;;;;;;;;;;;;;;;;;;5075373;28;19916;-83
2023/02/06 07:10:54;;;;;;;;;;;;;;;;;;5075490;28;19916;-83
2023/02/06 07:13:20;;;;;;;;;;;;;;;;;;5074083;28;19924;-82
2023/02/06 07:15:45;;;;;;;;;;;;;;;;;;5075351;28;19962;-84
2023/02/06 07:18:11;;;;;;;;;;;;;;;;;;5075315;28;19951;-82
2023/02/06 07:20:36;;;;;;;;;;;;;;;;;;5075690;28;19973;-83
2023/02/06 07:23:03;;;;;;;;;;;;;;;;;;5075630;28;19959;-82
2023/02/06 07:25:28;;;;;;;;;;;;;;;;;;5074800;28;19924;-84
2023/02/06 07:27:53;;;;;;;;;;;;;;;;;;5057647;28;20249;-83
2023/02/06 07:30:19;;;;;;;;;;;;;;;;;;5076468;28;19916;-83
2023/02/06 07:32:44;;;;;;;;;;;;;;;;;;5093145;28;19927;-82
2023/02/06 07:35:10;;;;;;;;;;;;;;;;;;5092530;28;19923;-84
2023/02/06 07:37:35;;;;;;;;;;;;;;;;;;5090009;28;19939;-82
2023/02/06 07:40:01;;;;;;;;;;;;;;;;;;5093317;28;19917;-87
2023/02/06 07:42:27;;;;;;;;;;;;;;;;;;5086830;28;19917;-88
2023/02/06 07:44:52;;;;;;;;;;;;;;;;;;5059873;28;19955;-88
2023/02/06 07:47:17;;;;;;;;;;;;;;;;;;5076226;28;19917;-88
2023/02/06 07:49:43;;;;;;;;;;;;;;;;;;5070871;28;20372;-88
2023/02/06 07:52:08;;;;;;;;;;;;;;;;;;5070532;28;19917;-87
2023/02/06 07:54:34;;;;;;;;;;;;;;;;;;5070989;28;19916;-88
2023/02/06 07:56:59;;;;;;;;;;;;;;;;;;5055710;28;19917;-89
2023/02/06 07:59:25;;;;;;;;;;;;;;;;;;5087722;28;19967;-90
2023/02/06 08:01:51;;;;;;;;;;;;;;;;;;5054860;28;19960;-89
2023/02/06 08:04:16;;;;;;;;;;;;;;;;;;5069961;28;19947;-88
2023/02/06 08:06:42;;;;;;;;;;;;;;;;;;5054524;28;19921;-90
2023/02/06 08:09:11;;;;;;;;;;;;;;;;;;5054219;28;19921;-89
2023/02/06 08:11:36;;;;;;;;;;;;;;;;;;5069811;28;19924;-86
2023/02/06 08:14:01;;;;;;;;;;;;;;;;;;5086924;28;19921;-88
2023/02/06 08:16:27;;;;;;;;;;;;;;;;;;5054313;28;19921;-93
2023/02/06 08:18:52;;;;;;;;;;;;;;;;;;5054408;28;19921;-89
2023/02/06 08:21:19;;;;;;;;;;;;;;;;;;5069906;28;19912;-89
2023/02/06 08:23:45;;;;;;;;;;;;;;;;;;5054933;28;20280;-89
2023/02/06 08:26:15;;;;;;;;;;;;;;;;;;5052880;28;20368;-90
2023/02/06 08:28:41;;;;;;;;;;;;;;;;;;5069225;28;20025;-87
2023/02/06 08:31:08;;;;;;;;;;;;;;;;;;5054053;28;19955;-91
2023/02/06 08:33:33;;;;;;;;;;;;;;;;;;5053894;28;20322;-89
2023/02/06 08:36:00;;;;;;;;;;;;;;;;;;5053937;28;19917;-91
2023/02/06 08:38:26;;;;;;;;;;;;;;;;;;5053674;28;20003;-90
2023/02/06 08:40:51;;;;;;;;;;;;;;;;;;5053918;28;20365;-89
2023/02/06 08:43:17;;;;;;;;;;;;;;;;;;5052453;28;20455;-89
2023/02/06 08:45:46;;;;;;;;;;;;;;;;;;5053776;28;19923;-88
2023/02/06 08:48:11;;;;;;;;;;;;;;;;;;5069110;28;19925;-84
2023/02/06 08:50:37;;;;;;;;;;;;;;;;;;5073695;28;19923;-88
2023/02/06 08:53:02;;;;;;;;;;;;;;;;;;5055244;28;20452;-84
2023/02/06 08:55:28;;;;;;;;;;;;;;;;;;5055621;28;19924;-84
2023/02/06 08:57:53;;;;;;;;;;;;;;;;;;5055652;28;19958;-86
2023/02/06 09:00:19;;;;;;;;;;;;;;;;;;5055689;28;19958;-84
2023/02/06 09:03:27;;;;;;;;;;;;;;;;;;;;;
2023/02/06 09:06:41;;;;;;;;;;;;;;;;;;;;;
2023/02/06 09:52:20;;;;;;;;;;;;;;;;;;4758467;30;19932;-83
2023/02/06 11:02:13;;;;;;;;;;;;;;;;;;4907954;29;19931;-83
2023/02/06 11:12:01;;;;;;;;;;;;;;;;;;4897629;29;20029;-83
2023/02/06 11:18:11;;;;;;;;;;;;;;;;;;;;;
2023/02/06 11:50:36;;;;;;;;;;;;;;;;;;;;;
2023/02/06 11:59:53;;;;;;;;;;;;;;;;;;;;;
2023/02/06 12:03:04;;;;;;;;;;;;;;;;;;;;;
2023/02/06 12:05:48;;;;;;;;;;;;;;;;;;4835836;29;20008;-87
2023/02/06 12:08:44;;;;;;;;;;;;;;;;;;;;;
2023/02/06 12:18:31;;;;;;;;;;;;;;;;;;;;;
2023/02/06 12:24:20;;;;;;;;;;;;;;;;;;4886692;29;19920;-86
2023/02/06 12:27:14;;;;;;;;;;;;;;;;;;4893697;29;19921;-82
2023/02/06 12:30:14;;;;;;;;;;;;;;;;;;4877613;29;19920;-85
2023/02/06 12:33:42;;;;;;;;;;;;;;;;;;;;;
2023/02/06 12:35:39;;;;;;;;;;;;;;;;;;4905268;29;19919;-86
2023/02/06 12:41:45;;;;;;;;;;;;;;;;;;;;;
2023/02/06 12:44:33;;;;;;;;;;;;;;;;;;;;;
2023/02/06 12:47:32;;;;;;;;;;;;;;;;;;;;;
2023/02/06 12:53:34;;;;;;;;;;;;;;;;;;4978613;28;20060;-82
2023/02/06 12:56:41;;;;;;;;;;;;;;;;;;;;;
2023/02/06 12:59:43;;;;;;;;;;;;;;;;;;;;;
2023/02/06 13:02:28;;;;;;;;;;;;;;;;;;;;;
2023/02/06 13:07:50;;;;;;;;;;;;;;;;;;4984007;28;20371;-82
2023/02/06 13:10:36;;;;;;;;;;;;;;;;;;4991812;28;19918;-82
2023/02/06 13:13:12;;;;;;;;;;;;;;;;;;4975408;28;19929;-82
2023/02/06 13:16:41;;;;;;;;;;;;;;;;;;;;;
2023/02/06 13:19:03;;;;;;;;;;;;;;;;;;5017805;28;19947;-83
2023/02/06 13:21:42;;;;;;;;;;;;;;;;;;5048827;28;19943;-83
2023/02/06 13:24:15;;;;;;;;;;;;;;;;;;5064734;28;19921;-83
2023/02/06 13:27:05;;;;;;;;;;;;;;;;;;5052084;28;20403;-86
2023/02/06 13:29:45;;;;;;;;;;;;;;;;;;5033185;28;20391;-82
2023/02/06 13:32:21;;;;;;;;;;;;;;;;;;5033095;28;20380;-82
2023/02/06 13:35:03;;;;;;;;;;;;;;;;;;;;;
2023/02/06 13:40:46;;;;;;;;;;;;;;;;;;5025776;28;19917;-84
2023/02/06 13:43:28;;;;;;;;;;;;;;;;;;5023099;28;19917;-82
2023/02/06 13:46:23;;;;;;;;;;;;;;;;;;5048646;28;19967;-84
2023/02/06 13:49:10;;;;;;;;;;;;;;;;;;;;;
2023/02/06 13:51:46;;;;;;;;;;;;;;;;;;5072820;28;20324;-83
2023/02/06 13:54:33;;;;;;;;;;;;;;;;;;5055324;28;19923;-84
2023/02/06 13:57:16;;;;;;;;;;;;;;;;;;5072470;28;20375;-86
2023/02/06 13:59:48;;;;;;;;;;;;;;;;;;5055182;28;19916;-83
2023/02/06 14:02:25;;;;;;;;;;;;;;;;;;5055013;28;20739;-84
2023/02/06 14:04:53;;;;;;;;;;;;;;;;;;5055076;28;19916;-83
2023/02/06 14:07:40;;;;;;;;;;;;;;;;;;5054908;28;19920;-84
2023/02/06 14:16:03;;;;;;;;;;;;;;;;;;;;;
2023/02/06 14:24:40;;;;;;;;;;;;;;;;;;5030293;28;19987;-84
2023/02/06 14:27:44;;;;;;;;;;;;;;;;;;5029780;28;19924;-85
2023/02/06 14:30:34;;;;;;;;;;;;;;;;;;5030131;28;19940;-84
2023/02/06 14:33:08;;;;;;;;;;;;;;;;;;5030199;28;19924;-85
2023/02/06 14:35:47;;;;;;;;;;;;;;;;;;5031947;28;20328;-81
2023/02/06 14:38:23;;;;;;;;;;;;;;;;;;5033879;28;19968;-83
2023/02/06 14:40:53;;;;;;;;;;;;;;;;;;5033929;28;19921;-88
2023/02/06 14:43:26;;;;;;;;;;;;;;;;;;5033726;28;19917;-86
2023/02/06 14:46:04;;;;;;;;;;;;;;;;;;5034084;28;19952;-84
2023/02/06 14:51:40;;;;;;;;;;;;;;;;;;;;;
2023/02/06 14:54:25;;;;;;;;;;;;;;;;;;5075800;28;20323;-82
2023/02/06 14:57:07;;;;;;;;;;;;;;;;;;5067989;28;20445;-86
2023/02/06 14:59:38;;;;;;;;;;;;;;;;;;5058048;28;19925;-86
2023/02/06 15:02:26;;;;;;;;;;;;;;;;;;;;;
2023/02/06 15:05:02;;;;;;;;;;;;;;;;;;;;;
2023/02/06 15:07:47;;;;;;;;;;;;;;;;;;;;;
2023/02/06 15:10:14;;;;;;;;;;;;;;;;;;5077210;28;20287;-82
2023/02/06 15:12:40;;;;;;;;;;;;;;;;;;5058615;28;19916;-83
2023/02/06 15:15:20;;;;;;;;;;;;;;;;;;5074971;28;20265;-82
2023/02/06 15:18:05;;;;;;;;;;;;;;;;;;5075310;28;20299;-81
2023/02/06 15:20:40;;;;;;;;;;;;;;;;;;5075649;28;19917;-82
2023/02/06 15:23:07;;;;;;;;;;;;;;;;;;5057114;28;19923;-82
2023/02/06 15:25:44;;;;;;;;;;;;;;;;;;5075412;28;19975;-81
2023/02/06 15:28:17;;;;;;;;;;;;;;;;;;5057169;28;20341;-82
2023/02/06 15:30:43;;;;;;;;;;;;;;;;;;5081208;28;19925;-82
2023/02/06 15:33:10;;;;;;;;;;;;;;;;;;5075370;28;20395;-84
2023/02/06 15:35:37;;;;;;;;;;;;;;;;;;5059011;28;20298;-82
2023/02/06 15:38:04;;;;;;;;;;;;;;;;;;5056792;28;19932;-83
2023/02/06 15:40:31;;;;;;;;;;;;;;;;;;5074754;28;20347;-83
2023/02/06 15:42:57;;;;;;;;;;;;;;;;;;5076988;28;19923;-83
2023/02/06 15:45:23;;;;;;;;;;;;;;;;;;5074738;28;19922;-82
2023/02/06 15:47:49;;;;;;;;;;;;;;;;;;5072861;28;20279;-83
2023/02/06 15:50:17;;;;;;;;;;;;;;;;;;5074603;28;19920;-83
2023/02/06 15:52:45;;;;;;;;;;;;;;;;;;5075501;28;19916;-82
2023/02/06 15:55:24;;;;;;;;;;;;;;;;;;5074627;28;19927;-81
2023/02/06 15:57:50;;;;;;;;;;;;;;;;;;5075734;28;20016;-81
2023/02/06 16:00:22;;;;;;;;;;;;;;;;;;5075051;28;19938;-81
2023/02/06 16:02:48;;;;;;;;;;;;;;;;;;5074436;28;19920;-82
2023/02/06 16:05:25;;;;;;;;;;;;;;;;;;5060642;28;19928;-82
2023/02/06 16:07:51;;;;;;;;;;;;;;;;;;5092193;28;19946;-81
2023/02/06 16:10:27;;;;;;;;;;;;;;;;;;5074289;28;20007;-82
2023/02/06 16:12:53;;;;;;;;;;;;;;;;;;5056759;28;19924;-82
2023/02/06 16:15:30;;;;;;;;;;;;;;;;;;5073884;28;19960;-83
2023/02/06 16:17:57;;;;;;;;;;;;;;;;;;5056346;28;19923;-82
2023/02/06 16:20:32;;;;;;;;;;;;;;;;;;5056278;28;19920;-81
2023/02/06 16:23:16;;;;;;;;;;;;;;;;;;5089612;28;20355;-82
2023/02/06 16:25:42;;;;;;;;;;;;;;;;;;5090141;28;19917;-82
2023/02/06 16:28:21;;;;;;;;;;;;;;;;;;5074270;28;20404;-82
2023/02/06 16:30:54;;;;;;;;;;;;;;;;;;5074490;28;20416;-85
2023/02/06 16:33:32;;;;;;;;;;;;;;;;;;5056429;28;20008;-82
2023/02/06 16:35:58;;;;;;;;;;;;;;;;;;5056409;28;19954;-85
2023/02/06 16:38:23;;;;;;;;;;;;;;;;;;5057034;28;19970;-82
2023/02/06 16:40:49;;;;;;;;;;;;;;;;;;5096126;28;20380;-82
2023/02/06 16:43:14;;;;;;;;;;;;;;;;;;5083123;28;19927;-83
2023/02/06 16:45:40;;;;;;;;;;;;;;;;;;5089419;28;19916;-81
2023/02/06 16:48:10;;;;;;;;;;;;;;;;;;5108660;28;19939;-82
2023/02/06 16:50:37;;;;;;;;;;;;;;;;;;5063084;28;19956;-84
2023/02/06 16:53:03;;;;;;;;;;;;;;;;;;5054667;28;19925;-85
2023/02/06 16:55:28;;;;;;;;;;;;;;;;;;5053875;28;20059;-85
2023/02/06 16:57:57;;;;;;;;;;;;;;;;;;5053025;28;19916;-85
2023/02/06 17:00:29;;;;;;;;;;;;;;;;;;5054112;28;19920;-85
2023/02/06 17:02:55;;;;;;;;;;;;;;;;;;5052491;28;19936;-87
2023/02/06 17:05:22;;;;;;;;;;;;;;;;;;5052772;28;20372;-84
2023/02/06 17:07:49;;;;;;;;;;;;;;;;;;5052442;28;20380;-85
2023/02/06 17:10:16;;;;;;;;;;;;;;;;;;5053890;28;19971;-89
2023/02/06 17:12:43;;;;;;;;;;;;;;;;;;5052456;28;20355;-84
2023/02/06 17:15:11;;;;;;;;;;;;;;;;;;5053497;28;20026;-86
2023/02/06 17:17:36;;;;;;;;;;;;;;;;;;5052001;28;19924;-86
2023/02/06 17:20:02;;;;;;;;;;;;;;;;;;5053625;28;20304;-86
2023/02/06 17:22:27;;;;;;;;;;;;;;;;;;5053391;28;19940;-86
2023/02/06 17:24:53;;;;;;;;;;;;;;;;;;5052561;28;19941;-87
2023/02/06 17:27:19;;;;;;;;;;;;;;;;;;5053509;28;20383;-87
2023/02/06 17:29:45;;;;;;;;;;;;;;;;;;5053204;28;19947;-84
2023/02/06 17:32:12;;;;;;;;;;;;;;;;;;5053716;28;19917;-86
2023/02/06 17:34:37;;;;;;;;;;;;;;;;;;5053452;28;19924;-87
2023/02/06 17:37:03;;;;;;;;;;;;;;;;;;5053210;28;19925;-82
2023/02/06 17:39:28;;;;;;;;;;;;;;;;;;5052000;28;19975;-83
2023/02/06 17:41:54;;;;;;;;;;;;;;;;;;5052076;28;20003;-87
2023/02/06 17:44:19;;;;;;;;;;;;;;;;;;5053269;28;20275;-82
2023/02/06 17:46:45;;;;;;;;;;;;;;;;;;5051904;28;19921;-83
2023/02/06 17:49:11;;;;;;;;;;;;;;;;;;5056569;28;20011;-83
2023/02/06 17:51:38;;;;;;;;;;;;;;;;;;5088810;28;20012;-82
2023/02/06 17:54:04;;;;;;;;;;;;;;;;;;5055174;28;19955;-84
2023/02/06 17:56:30;;;;;;;;;;;;;;;;;;5073330;28;19921;-84
2023/02/06 17:58:55;;;;;;;;;;;;;;;;;;5072747;28;20330;-83
2023/02/06 18:01:22;;;;;;;;;;;;;;;;;;5073209;28;19916;-82
2023/02/06 18:03:47;;;;;;;;;;;;;;;;;;5073231;28;20383;-81
2023/02/06 18:06:13;;;;;;;;;;;;;;;;;;5074305;28;19927;-81
2023/02/06 18:08:39;;;;;;;;;;;;;;;;;;5074482;28;19970;-82
2023/02/06 18:11:10;;;;;;;;;;;;;;;;;;5076532;28;20465;-83
2023/02/06 18:13:36;;;;;;;;;;;;;;;;;;5059223;28;19920;-83
2023/02/06 18:16:01;;;;;;;;;;;;;;;;;;5076956;28;19966;-80
2023/02/06 18:18:27;;;;;;;;;;;;;;;;;;5076736;28;19920;-82
2023/02/06 18:20:52;;;;;;;;;;;;;;;;;;5058816;28;20021;-81
2023/02/06 18:23:18;;;;;;;;;;;;;;;;;;5092576;28;19931;-81
2023/02/06 18:25:44;;;;;;;;;;;;;;;;;;5076511;28;19995;-82
2023/02/06 18:28:12;;;;;;;;;;;;;;;;;;5076209;28;19917;-82
2023/02/06 18:30:38;;;;;;;;;;;;;;;;;;5076420;28;20260;-82
2023/02/06 18:33:03;;;;;;;;;;;;;;;;;;5076474;28;19962;-81
2023/02/06 18:35:29;;;;;;;;;;;;;;;;;;5076644;28;19942;-82
2023/02/06 18:37:54;;;;;;;;;;;;;;;;;;5058470;28;19917;-82
2023/02/06 18:40:20;;;;;;;;;;;;;;;;;;5058496;28;19916;-82
2023/02/06 18:42:52;;;;;;;;;;;;;;;;;;5058175;28;19970;-82
2023/02/06 18:45:21;;;;;;;;;;;;;;;;;;5076387;28;19958;-81
2023/02/06 18:47:47;;;;;;;;;;;;;;;;;;5058713;28;19924;-83
2023/02/06 18:50:13;;;;;;;;;;;;;;;;;;5058009;28;19924;-82
2023/02/06 18:52:38;;;;;;;;;;;;;;;;;;5076233;28;19917;-83
2023/02/06 18:55:04;;;;;;;;;;;;;;;;;;5058155;28;19923;-82
2023/02/06 18:57:30;;;;;;;;;;;;;;;;;;5076063;28;19924;-88
2023/02/06 18:59:55;;;;;;;;;;;;;;;;;;5076143;28;19916;-82
2023/02/06 19:02:21;;;;;;;;;;;;;;;;;;5058232;28;19924;-82
2023/02/06 19:04:46;;;;;;;;;;;;;;;;;;5076868;28;19962;-82
2023/02/06 19:07:12;;;;;;;;;;;;;;;;;;5060185;28;19959;-81
2023/02/06 19:09:38;;;;;;;;;;;;;;;;;;5076310;28;19917;-83
2023/02/06 19:12:03;;;;;;;;;;;;;;;;;;5058587;28;20497;-85
2023/02/06 19:14:29;;;;;;;;;;;;;;;;;;5076048;28;20330;-81
2023/02/06 19:16:54;;;;;;;;;;;;;;;;;;5091753;28;20011;-83
2023/02/06 19:19:20;;;;;;;;;;;;;;;;;;5058078;28;19920;-81
2023/02/06 19:21:45;;;;;;;;;;;;;;;;;;5075032;28;20019;-83
2023/02/06 19:24:12;;;;;;;;;;;;;;;;;;5075881;28;19920;-82
2023/02/06 19:26:38;;;;;;;;;;;;;;;;;;5057720;28;19916;-85
2023/02/06 19:29:03;;;;;;;;;;;;;;;;;;5058094;28;19920;-84
2023/02/06 19:31:30;;;;;;;;;;;;;;;;;;5076839;28;19916;-83
2023/02/06 19:33:57;;;;;;;;;;;;;;;;;;5075246;28;20050;-84
2023/02/06 19:36:23;;;;;;;;;;;;;;;;;;5057455;28;19927;-83
2023/02/06 19:38:52;;;;;;;;;;;;;;;;;;5057307;28;19917;-83
2023/02/06 19:41:22;;;;;;;;;;;;;;;;;;5076915;28;19923;-84
2023/02/06 19:43:48;;;;;;;;;;;;;;;;;;5082733;28;19917;-82
2023/02/06 19:46:14;;;;;;;;;;;;;;;;;;5077792;28;19970;-84
2023/02/06 19:48:42;;;;;;;;;;;;;;;;;;5057027;28;20280;-85
2023/02/06 19:51:28;;;;;;;;;;;;;;;;;;5075065;28;19927;-83
2023/02/06 19:53:54;;;;;;;;;;;;;;;;;;5074605;28;19936;-83
2023/02/06 19:56:19;;;;;;;;;;;;;;;;;;5090578;28;19969;-83
2023/02/06 19:58:45;;;;;;;;;;;;;;;;;;5090725;28;19916;-88
2023/02/06 20:01:12;;;;;;;;;;;;;;;;;;5056839;28;19981;-85
2023/02/06 20:03:38;;;;;;;;;;;;;;;;;;5056860;28;19920;-86
2023/02/06 20:06:09;;;;;;;;;;;;;;;;;;5074818;28;20054;-87
2023/02/06 20:08:34;;;;;;;;;;;;;;;;;;5074473;28;20007;-85
2023/02/06 20:11:07;;;;;;;;;;;;;;;;;;5056641;28;20392;-84
2023/02/06 20:13:32;;;;;;;;;;;;;;;;;;5074735;28;19971;-85
2023/02/06 20:16:02;;;;;;;;;;;;;;;;;;5074458;28;20287;-82
2023/02/06 20:18:28;;;;;;;;;;;;;;;;;;5074380;28;19916;-83
2023/02/06 20:20:53;;;;;;;;;;;;;;;;;;5089991;28;19967;-84
2023/02/06 20:23:19;;;;;;;;;;;;;;;;;;5056132;28;19959;-83
2023/02/06 20:25:44;;;;;;;;;;;;;;;;;;5056416;28;20287;-84
2023/02/06 20:28:09;;;;;;;;;;;;;;;;;;5074283;28;19923;-83
2023/02/06 20:30:35;;;;;;;;;;;;;;;;;;5074317;28;19924;-83
2023/02/06 20:33:00;;;;;;;;;;;;;;;;;;5073905;28;19916;-83